Time;durP1;ratioP1;P1;durP2;ratioP2;P2;SDS_P1;SDS_P2;PMS_P1;PMS_P2;Temp;Humidity;BMP_temperature;BMP_pressure;BME280_temperature;BME280_humidity;BME280_pressure;Samples;Min_cycle;Max_cycle;Signal;HPM_P1;HPM_P2
2022/12/08 00:01:54;;;;;;;11.20;5.80;;;;;;;1.20;76.54;99623.78;30734789;28;96650;-68
2022/12/08 00:16:55;;;;;;;11.02;6.75;;;;;;;1.01;76.20;99618.22;30733264;28;97364;-66
2022/12/08 00:31:55;;;;;;;9.32;5.43;;;;;;;0.99;76.40;99609.63;30732840;28;96738;-66
2022/12/08 00:46:56;;;;;;;12.23;5.30;;;;;;;0.98;76.73;99623.69;30731852;28;96736;-68
2022/12/08 01:01:56;;;;;;;8.75;5.22;;;;;;;0.98;76.55;99647.31;30729837;28;97235;-66
2022/12/08 01:16:56;;;;;;;11.85;5.95;;;;;;;0.93;76.91;99625.88;30729980;28;96959;-68
2022/12/08 01:31:57;;;;;;;10.30;5.38;;;;;;;0.97;76.58;99621.19;30749117;28;97332;-70
2022/12/08 01:46:57;;;;;;;11.27;6.25;;;;;;;0.83;76.42;99614.44;30748014;28;96743;-65
2022/12/08 02:01:58;;;;;;;9.63;5.50;;;;;;;0.80;77.11;99612.06;30745901;28;96745;-66
2022/12/08 02:17:01;;;;;;;8.93;5.70;;;;;;;0.77;76.52;99600.03;30744964;28;96643;-65
2022/12/08 02:32:16;;;;;;;10.32;5.63;;;;;;;0.85;76.88;99607.28;30743448;28;97233;-68
2022/12/08 02:47:19;;;;;;;11.85;6.60;;;;;;;0.84;76.84;99606.44;30742106;28;96755;-66
2022/12/08 03:02:31;;;;;;;9.05;5.53;;;;;;;0.84;76.95;99595.13;30739490;28;97422;-66
2022/12/08 03:17:32;;;;;;;8.35;5.43;;;;;;;0.74;76.67;99588.94;30739101;28;97544;-67
2022/12/08 03:32:46;;;;;;;10.10;6.50;;;;;;;0.94;76.94;99592.59;30737796;28;96601;-65
2022/12/08 03:47:47;;;;;;;10.60;6.77;;;;;;;1.10;77.38;99600.09;30735373;28;97242;-67
2022/12/08 04:02:47;;;;;;;14.40;6.35;;;;;;;1.06;77.11;99596.03;30734150;28;97304;-65
2022/12/08 04:17:47;;;;;;;12.60;7.05;;;;;;;1.07;76.99;99592.47;30732466;28;96694;-71
2022/12/08 04:32:48;;;;;;;10.68;7.05;;;;;;;0.99;76.58;99562.41;30731194;28;97418;-65
2022/12/08 04:47:48;;;;;;;13.02;7.07;;;;;;;0.87;76.39;99566.03;30731174;28;96684;-68
2022/12/08 05:02:49;;;;;;;10.18;7.30;;;;;;;0.81;77.18;99553.44;30744661;28;96738;-67
2022/12/08 05:17:49;;;;;;;11.63;7.72;;;;;;;0.76;76.95;99545.91;30745564;28;96744;-65
2022/12/08 05:32:50;;;;;;;18.30;8.98;;;;;;;0.73;77.24;99546.16;30745416;28;97127;-69
2022/12/08 05:47:52;;;;;;;11.88;8.48;;;;;;;0.64;77.39;99539.03;30744776;28;96540;-64
2022/12/08 06:02:52;;;;;;;16.38;8.98;;;;;;;0.58;77.43;99540.34;30738959;28;97206;-68
2022/12/08 06:17:52;;;;;;;9.98;6.60;;;;;;;0.85;77.88;99544.34;30741447;28;96762;-65
2022/12/08 06:32:53;;;;;;;8.63;5.80;;;;;;;0.76;77.42;99550.34;30741009;28;96688;-65
2022/12/08 06:47:53;;;;;;;11.77;6.72;;;;;;;0.58;77.96;99547.41;30737693;28;97131;-66
2022/12/08 07:02:54;;;;;;;16.40;9.00;;;;;;;0.50;78.35;99555.84;30736361;28;97495;-70
2022/12/08 07:17:54;;;;;;;16.20;9.88;;;;;;;0.50;78.11;99550.63;30734789;28;96684;-66
2022/12/08 07:32:54;;;;;;;10.52;6.63;;;;;;;0.82;77.99;99550.69;30734381;28;96602;-66
2022/12/08 07:47:55;;;;;;;11.45;6.63;;;;;;;1.27;78.32;99548.84;30730832;28;96771;-67
2022/12/08 08:02:56;;;;;;;9.88;5.63;;;;;;;1.74;77.55;99557.19;30731738;28;97716;-66
2022/12/08 08:17:57;;;;;;;10.45;7.60;;;;;;;2.07;76.95;99567.59;30729412;28;97723;-66
2022/12/08 08:32:57;;;;;;;11.13;7.38;;;;;;;2.45;76.32;99560.84;30740434;28;97453;-66
2022/12/08 08:47:58;;;;;;;13.60;6.65;;;;;;;3.19;76.08;99556.97;30750137;28;97387;-68
2022/12/08 09:02:58;;;;;;;8.15;5.63;;;;;;;4.52;74.07;99542.06;30746154;28;96709;-64
2022/12/08 09:17:59;;;;;;;9.32;6.68;;;;;;;7.18;69.75;99533.84;30745245;28;97182;-68
2022/12/08 09:32:59;;;;;;;8.80;5.32;;;;;;;12.27;61.47;99515.13;30746674;28;96636;-66
2022/12/08 09:48:10;;;;;;;7.80;4.47;;;;;;;11.41;55.43;99508.97;30746250;28;96644;-65
2022/12/08 10:03:12;;;;;;;7.37;4.57;;;;;;;9.70;56.07;99506.53;30743883;28;97069;-72
2022/12/08 10:18:23;;;;;;;7.77;4.53;;;;;;;9.28;55.34;99497.28;30742828;28;96815;-65
2022/12/08 10:33:24;;;;;;;7.37;5.13;;;;;;;9.73;53.79;99487.59;30739923;28;96852;-69
2022/12/08 10:48:29;;;;;;;7.17;5.67;;;;;;;7.39;57.10;99475.88;30738488;28;96644;-70
2022/12/08 11:03:35;;;;;;;11.87;6.57;;;;;;;6.23;59.33;99476.72;30737506;28;96726;-66
2022/12/08 11:18:42;;;;;;;9.57;5.30;;;;;;;5.62;60.91;99466.16;30737752;28;97007;-70
2022/12/08 11:33:43;;;;;;;9.10;6.03;;;;;;;5.00;61.48;99467.03;30735356;28;96726;-72
2022/12/08 11:48:52;;;;;;;10.20;5.18;;;;;;;4.81;62.31;99459.25;30733883;28;96689;-72
2022/12/08 12:04:06;;;;;;;12.18;5.90;;;;;;;4.90;62.22;99453.06;30728404;28;97581;-66
2022/12/08 12:19:15;;;;;;;8.77;5.75;;;;;;;4.84;62.59;99436.03;30731416;28;96761;-67
2022/12/08 12:34:24;;;;;;;12.27;5.95;;;;;;;5.22;62.17;99439.31;30728805;28;97211;-66
2022/12/08 12:49:39;;;;;;;10.73;5.97;;;;;;;11.84;57.19;99428.84;30728387;28;96710;-67
2022/12/08 13:04:40;;;;;;;14.27;6.03;;;;;;;14.17;47.63;99421.22;30727484;28;96811;-71
2022/12/08 13:19:41;;;;;;;9.00;5.07;;;;;;;15.21;42.76;99410.28;30735062;28;96615;-72
2022/12/08 13:34:50;;;;;;;11.37;7.77;;;;;;;10.73;43.36;99397.50;30744444;28;97619;-66
2022/12/08 13:50:00;;;;;;;9.10;5.57;;;;;;;6.53;50.14;99405.69;30744043;28;97049;-66
2022/12/08 14:05:02;;;;;;;12.73;6.95;;;;;;;4.95;54.43;99411.22;30741890;28;96897;-68
2022/12/08 14:20:06;;;;;;;12.20;7.55;;;;;;;4.37;56.36;99407.22;30740614;28;96814;-68
2022/12/08 14:35:06;;;;;;;19.30;10.67;;;;;;;3.68;57.71;99404.97;30739931;28;97265;-69
2022/12/08 14:50:37;;;;;;;16.27;9.63;;;;;;;2.76;59.82;99410.84;30739269;28;97180;-66
2022/12/08 15:05:38;;;;;;;17.85;11.00;;;;;;;2.19;61.96;99414.97;30737687;28;96737;-66
2022/12/08 15:20:39;;;;;;;42.15;13.38;;;;;;;1.92;63.03;99427.91;30736129;28;96824;-67
2022/12/08 15:35:40;;;;;;;25.95;12.25;;;;;;;1.72;64.45;99424.34;30733740;28;96692;-68
2022/12/08 15:50:40;;;;;;;32.30;15.68;;;;;;;1.96;64.47;99426.66;30733179;28;96858;-67
2022/12/08 16:05:41;;;;;;;20.65;12.48;;;;;;;1.99;65.48;99423.75;30731292;28;96722;-67
2022/12/08 16:20:42;;;;;;;20.83;11.30;;;;;;;2.03;66.22;99420.72;30729492;28;96795;-66
2022/12/08 16:35:43;;;;;;;22.30;12.38;;;;;;;2.18;66.14;99421.16;30729714;28;96588;-67
2022/12/08 16:50:44;;;;;;;32.22;15.98;;;;;;;2.10;66.42;99420.19;30732698;28;96616;-66
2022/12/08 17:05:45;;;;;;;32.08;15.93;;;;;;;1.49;66.32;99425.38;30746648;28;96655;-66
2022/12/08 17:20:45;;;;;;;20.30;10.52;;;;;;;1.16;67.94;99415.91;30747533;28;96648;-68
2022/12/08 17:35:51;;;;;;;14.00;8.70;;;;;;;0.90;68.41;99405.81;30745333;28;96795;-68
2022/12/08 17:50:53;;;;;;;24.40;13.40;;;;;;;0.63;69.08;99420.25;30742853;28;96621;-65
2022/12/08 18:05:53;;;;;;;24.50;11.63;;;;;;;0.30;69.86;99424.66;30738900;28;96670;-69
2022/12/08 18:20:53;;;;;;;25.08;13.90;;;;;;;0.06;70.52;99411.72;30739916;28;97903;-65
2022/12/08 18:35:54;;;;;;;27.80;14.13;;;;;;;-0.12;71.00;99426.25;30741352;28;97270;-65
2022/12/08 18:50:55;;;;;;;24.55;14.35;;;;;;;-0.27;71.21;99426.50;30739450;28;97041;-66
2022/12/08 19:06:03;;;;;;;30.80;14.10;;;;;;;-0.28;72.12;99418.78;30789506;28;97227;-70
2022/12/08 19:21:04;;;;;;;22.23;11.70;;;;;;;-0.21;72.72;99414.72;30659838;28;97136;-70
2022/12/08 19:36:10;;;;;;;30.70;14.63;;;;;;;0.06;72.83;99411.72;30622367;28;96794;-71
2022/12/08 19:51:11;;;;;;;20.90;11.32;;;;;;;0.32;72.62;99406.19;30698399;28;97037;-69
2022/12/08 20:06:14;;;;;;;29.55;14.02;;;;;;;0.51;72.62;99402.91;30683482;28;96823;-68
2022/12/08 20:21:15;;;;;;;24.75;14.38;;;;;;;0.58;72.48;99401.44;30625674;28;96677;-69
2022/12/08 20:36:18;;;;;;;28.23;13.50;;;;;;;0.63;72.49;99416.78;30599462;28;99411;-69
2022/12/08 20:51:18;;;;;;;25.20;13.25;;;;;;;0.73;72.38;99420.31;30599045;28;96892;-69
2022/12/08 21:06:25;;;;;;;22.42;12.77;;;;;;;0.74;72.04;99426.38;30646367;28;97614;-69
2022/12/08 21:21:26;;;;;;;23.88;11.65;;;;;;;0.61;72.10;99416.09;30656960;28;97317;-69
2022/12/08 21:36:27;;;;;;;21.95;12.75;;;;;;;0.66;72.14;99422.59;30661348;28;96692;-69
2022/12/08 21:51:27;;;;;;;22.52;11.73;;;;;;;0.68;72.04;99422.47;30674305;28;97327;-68
2022/12/08 22:06:28;;;;;;;19.80;11.48;;;;;;;0.49;71.59;99418.75;30675183;28;96765;-68
2022/12/08 22:21:29;;;;;;;21.10;11.90;;;;;;;0.43;72.75;99405.31;30670018;28;96708;-68
2022/12/08 22:36:29;;;;;;;23.60;12.77;;;;;;;0.57;72.74;99405.00;30674307;28;97930;-68
2022/12/08 22:51:30;;;;;;;24.33;13.23;;;;;;;0.50;72.48;99403.84;30801882;28;96770;-68
2022/12/08 23:06:30;;;;;;;23.85;11.63;;;;;;;0.43;72.38;99407.94;30808028;28;97900;-69
2022/12/08 23:21:31;;;;;;;22.33;12.13;;;;;;;0.29;72.76;99399.41;30746188;28;97243;-68
2022/12/08 23:36:31;;;;;;;17.17;11.15;;;;;;;0.47;72.88;99411.97;30737813;28;96658;-68
2022/12/08 23:51:32;;;;;;;21.33;11.88;;;;;;;0.48;72.72;99422.31;30849840;28;97224;-69
